Solair — DCKY2 — position and weather

sailwx.info

Track history (hours):
 
Tides and Currents Weather Stations Pressure Air Temp Water Temp Dewpoint Dewpoint Depression Visibility Wind Speed Wind Dir Waves Ship Positions

Solair

Last reported at 2017-Nov-19 15:53 UTC. Time now 2017-Nov-23 03:58 UTC.
Position N 27°54' W 015°19'.

Length 18 m.

Type: Sailing vessel. MMSI: 211160420.

Date/timePositionNaut miles runAvg speedWind from/ knotsBaromVisibWave heightAir tempDewpointWater temp
2017-Nov-19 15:53N 27°54' W 015°19'2 6.2
2017-Nov-19 15:29N 27°56' W 015°19'3 5.9
2017-Nov-19 15:00N 27°59' W 015°20'3 5.6
2017-Nov-19 14:30N 28°02' W 015°21'2 3.5
2017-Nov-19 14:00N 28°03' W 015°22'2 3.8
2017-Nov-19 13:30N 28°05' W 015°23'2 4.7
2017-Nov-19 13:00N 28°07' W 015°24'0 0.7
2017-Nov-19 12:30N 28°07' W 015°24'1 1.4
2017-Nov-19 12:00N 28°08' W 015°25'0 0.8
2017-Nov-19 11:27N 28°08' W 015°26'0 0.2
2017-Nov-19 10:55N 28°08' W 015°25'0 0.0
2017-Nov-19 10:22N 28°08' W 015°25'0 0.0
2017-Nov-19 09:55N 28°08' W 015°25'0 0.0
2017-Nov-19 09:25N 28°08' W 015°25'0 0.0
2017-Nov-19 08:58N 28°08' W 015°25'0 0.0
2017-Nov-19 08:28N 28°08' W 015°25'0 0.0
2017-Nov-18 10:06N 28°08' W 015°25'0 0.0
2017-Nov-18 09:51N 28°08' W 015°25'0 0.0
2017-Nov-18 09:24N 28°08' W 015°25'0 0.0
2017-Nov-18 08:51N 28°08' W 015°25'0 0.0
2017-Nov-18 08:21N 28°08' W 015°25'0 0.0
2017-Nov-17 21:00N 28°08' W 015°25'0 0.0
2017-Nov-17 20:30N 28°08' W 015°25'0 0.0
2017-Nov-17 19:48N 28°08' W 015°25'0 0.0
2017-Nov-17 19:21N 28°08' W 015°25'0 0.0
2017-Nov-17 18:54N 28°08' W 015°25'0 0.0
2017-Nov-17 18:24N 28°08' W 015°25'0 0.0
2017-Nov-17 17:54N 28°08' W 015°25'0 0.0
2017-Nov-17 17:24N 28°08' W 015°25'0 0.0
2017-Nov-17 16:54N 28°08' W 015°25'0 0.0
2017-Nov-17 16:24N 28°08' W 015°25'0 0.0
2017-Nov-17 15:57N 28°08' W 015°25'0 0.0
2017-Nov-17 11:03N 28°08' W 015°25'0 0.0
2017-Nov-17 11:00N 28°08' W 015°25'0 0.0
2017-Nov-17 10:30N 28°08' W 015°25'0 0.0
2017-Nov-17 10:00N 28°08' W 015°25'0 0.0
2017-Nov-17 09:30N 28°08' W 015°25'0 0.0
2017-Nov-16 17:45N 28°08' W 015°25'0 0.0
2017-Nov-16 17:30N 28°08' W 015°25'0 0.0
2017-Nov-16 17:00N 28°08' W 015°25'0 0.0
2017-Nov-16 16:30N 28°08' W 015°25'0 0.0
2017-Nov-16 16:00N 28°08' W 015°25'0 0.0
2017-Nov-16 15:30N 28°08' W 015°25'0 0.0
2017-Nov-16 15:00N 28°08' W 015°25'0 0.0
2017-Nov-16 14:30N 28°08' W 015°25'0 0.0
2017-Nov-16 14:00N 28°08' W 015°25'0 0.0
2017-Nov-16 13:30N 28°08' W 015°25'0 0.0
2017-Nov-16 12:51N 28°08' W 015°25'0 0.0
2017-Nov-16 12:21N 28°08' W 015°25'0 0.0
2017-Nov-16 11:51N 28°08' W 015°25'0 0.0
2017-Nov-16 11:24N 28°08' W 015°25'0 0.0
2017-Nov-16 10:54N 28°08' W 015°25'0 0.0
2017-Nov-15 21:08N 28°08' W 015°25'0 0.0
2017-Nov-15 20:53N 28°08' W 015°25'0 0.0
2017-Nov-15 20:26N 28°08' W 015°25'0 0.0
2017-Nov-15 19:56N 28°08' W 015°25'0 0.0
2017-Nov-15 19:27N 28°08' W 015°25'0 0.0
2017-Nov-15 18:56N 28°08' W 015°25'0 0.0
2017-Nov-15 18:26N 28°08' W 015°25'0 0.0
2017-Nov-15 17:56N 28°08' W 015°25'  
2017-Nov-11 00:08N 28°08' W 015°25'0 0.0
2017-Nov-10 23:59N 28°08' W 015°25'0 0.0
2017-Nov-10 23:29N 28°08' W 015°25'0 0.0
2017-Nov-10 22:59N 28°08' W 015°25'0 0.0
2017-Nov-10 22:29N 28°08' W 015°25'0 0.0
2017-Nov-10 21:59N 28°08' W 015°25'0 0.0
2017-Nov-10 21:29N 28°08' W 015°25'0 0.0
2017-Nov-10 20:59N 28°08' W 015°25'0 0.0
2017-Nov-10 20:26N 28°08' W 015°25'0 0.0
2017-Nov-10 19:47N 28°08' W 015°25'0 0.0
2017-Nov-10 19:20N 28°08' W 015°25'0 0.0
2017-Nov-10 18:59N 28°08' W 015°25'0 0.0
2017-Nov-10 18:20N 28°08' W 015°25'0 0.0
2017-Nov-10 17:59N 28°08' W 015°25'0 0.0
2017-Nov-10 17:29N 28°08' W 015°25'  
Track history (hours):
 
Tides and Currents Weather Stations Pressure Air Temp Water Temp Dewpoint Dewpoint Depression Visibility Wind Speed Wind Dir Waves Ship Positions

Solair

Last reported at 2017-Nov-19 15:53 UTC. Time now 2017-Nov-23 03:58 UTC.
Position N 27°54' W 015°19'.

Length 18 m.

Type: Sailing vessel. MMSI: 211160420.

Date/timePositionNaut miles runAvg speedWind from/ knotsBaromVisibWave heightAir tempDewpointWater temp
2017-Nov-19 15:53N 27°54' W 015°19'2 6.2
2017-Nov-19 15:29N 27°56' W 015°19'3 5.9
2017-Nov-19 15:00N 27°59' W 015°20'3 5.6
2017-Nov-19 14:30N 28°02' W 015°21'2 3.5
2017-Nov-19 14:00N 28°03' W 015°22'2 3.8
2017-Nov-19 13:30N 28°05' W 015°23'2 4.7
2017-Nov-19 13:00N 28°07' W 015°24'0 0.7
2017-Nov-19 12:30N 28°07' W 015°24'1 1.4
2017-Nov-19 12:00N 28°08' W 015°25'0 0.8
2017-Nov-19 11:27N 28°08' W 015°26'0 0.2
2017-Nov-19 10:55N 28°08' W 015°25'0 0.0
2017-Nov-19 10:22N 28°08' W 015°25'0 0.0
2017-Nov-19 09:55N 28°08' W 015°25'0 0.0
2017-Nov-19 09:25N 28°08' W 015°25'0 0.0
2017-Nov-19 08:58N 28°08' W 015°25'0 0.0
2017-Nov-19 08:28N 28°08' W 015°25'0 0.0
2017-Nov-18 10:06N 28°08' W 015°25'0 0.0
2017-Nov-18 09:51N 28°08' W 015°25'0 0.0
2017-Nov-18 09:24N 28°08' W 015°25'0 0.0
2017-Nov-18 08:51N 28°08' W 015°25'0 0.0
2017-Nov-18 08:21N 28°08' W 015°25'0 0.0
2017-Nov-17 21:00N 28°08' W 015°25'0 0.0
2017-Nov-17 20:30N 28°08' W 015°25'0 0.0
2017-Nov-17 19:48N 28°08' W 015°25'0 0.0
2017-Nov-17 19:21N 28°08' W 015°25'0 0.0
2017-Nov-17 18:54N 28°08' W 015°25'0 0.0
2017-Nov-17 18:24N 28°08' W 015°25'0 0.0
2017-Nov-17 17:54N 28°08' W 015°25'0 0.0
2017-Nov-17 17:24N 28°08' W 015°25'0 0.0
2017-Nov-17 16:54N 28°08' W 015°25'0 0.0
2017-Nov-17 16:24N 28°08' W 015°25'0 0.0
2017-Nov-17 15:57N 28°08' W 015°25'0 0.0
2017-Nov-17 11:03N 28°08' W 015°25'0 0.0
2017-Nov-17 11:00N 28°08' W 015°25'0 0.0
2017-Nov-17 10:30N 28°08' W 015°25'0 0.0
2017-Nov-17 10:00N 28°08' W 015°25'0 0.0
2017-Nov-17 09:30N 28°08' W 015°25'0 0.0
2017-Nov-16 17:45N 28°08' W 015°25'0 0.0
2017-Nov-16 17:30N 28°08' W 015°25'0 0.0
2017-Nov-16 17:00N 28°08' W 015°25'0 0.0
2017-Nov-16 16:30N 28°08' W 015°25'0 0.0
2017-Nov-16 16:00N 28°08' W 015°25'0 0.0
2017-Nov-16 15:30N 28°08' W 015°25'0 0.0
2017-Nov-16 15:00N 28°08' W 015°25'0 0.0
2017-Nov-16 14:30N 28°08' W 015°25'0 0.0
2017-Nov-16 14:00N 28°08' W 015°25'0 0.0
2017-Nov-16 13:30N 28°08' W 015°25'0 0.0
2017-Nov-16 12:51N 28°08' W 015°25'0 0.0
2017-Nov-16 12:21N 28°08' W 015°25'0 0.0
2017-Nov-16 11:51N 28°08' W 015°25'0 0.0
2017-Nov-16 11:24N 28°08' W 015°25'0 0.0
2017-Nov-16 10:54N 28°08' W 015°25'0 0.0
2017-Nov-15 21:08N 28°08' W 015°25'0 0.0
2017-Nov-15 20:53N 28°08' W 015°25'0 0.0
2017-Nov-15 20:26N 28°08' W 015°25'0 0.0
2017-Nov-15 19:56N 28°08' W 015°25'0 0.0
2017-Nov-15 19:27N 28°08' W 015°25'0 0.0
2017-Nov-15 18:56N 28°08' W 015°25'0 0.0
2017-Nov-15 18:26N 28°08' W 015°25'0 0.0
2017-Nov-15 17:56N 28°08' W 015°25'  
2017-Nov-11 00:08N 28°08' W 015°25'0 0.0
2017-Nov-10 23:59N 28°08' W 015°25'0 0.0
2017-Nov-10 23:29N 28°08' W 015°25'0 0.0
2017-Nov-10 22:59N 28°08' W 015°25'0 0.0
2017-Nov-10 22:29N 28°08' W 015°25'0 0.0
2017-Nov-10 21:59N 28°08' W 015°25'0 0.0
2017-Nov-10 21:29N 28°08' W 015°25'0 0.0
2017-Nov-10 20:59N 28°08' W 015°25'0 0.0
2017-Nov-10 20:26N 28°08' W 015°25'0 0.0
2017-Nov-10 19:47N 28°08' W 015°25'0 0.0
2017-Nov-10 19:20N 28°08' W 015°25'0 0.0
2017-Nov-10 18:59N 28°08' W 015°25'0 0.0
2017-Nov-10 18:20N 28°08' W 015°25'0 0.0
2017-Nov-10 17:59N 28°08' W 015°25'0 0.0
2017-Nov-10 17:29N 28°08' W 015°25'  

Dump ship's entire track history